sensor_id;sensor_type;location;lat;lon;timestamp;temperature;humidity
20610;DHT22;10463;52.378;9.688;2023-05-07T00:02:44;27.10;22.80
20610;DHT22;10463;52.378;9.688;2023-05-07T00:05:30;27.10;22.80
20610;DHT22;10463;52.378;9.688;2023-05-07T00:08:15;27.10;22.80
20610;DHT22;10463;52.378;9.688;2023-05-07T00:10:59;27.10;22.80
20610;DHT22;10463;52.378;9.688;2023-05-07T00:13:44;27.10;22.80
20610;DHT22;10463;52.378;9.688;2023-05-07T00:16:28;27.10;22.80
20610;DHT22;10463;52.378;9.688;2023-05-07T00:19:14;27.10;22.80
20610;DHT22;10463;52.378;9.688;2023-05-07T00:22:00;27.10;22.80
20610;DHT22;10463;52.378;9.688;2023-05-07T00:24:44;27.10;22.80
20610;DHT22;10463;52.378;9.688;2023-05-07T00:27:29;27.00;22.80
20610;DHT22;10463;52.378;9.688;2023-05-07T00:30:14;27.00;22.80
20610;DHT22;10463;52.378;9.688;2023-05-07T00:32:59;27.00;22.80
20610;DHT22;10463;52.378;9.688;2023-05-07T00:35:44;27.00;22.80
20610;DHT22;10463;52.378;9.688;2023-05-07T00:38:30;27.00;22.80
20610;DHT22;10463;52.378;9.688;2023-05-07T00:41:15;27.00;22.80
20610;DHT22;10463;52.378;9.688;2023-05-07T00:44:00;27.00;22.80
20610;DHT22;10463;52.378;9.688;2023-05-07T00:46:46;27.00;22.80
20610;DHT22;10463;52.378;9.688;2023-05-07T00:49:38;27.00;22.80
20610;DHT22;10463;52.378;9.688;2023-05-07T00:52:25;27.00;22.80
20610;DHT22;10463;52.378;9.688;2023-05-07T00:55:12;27.00;22.80
20610;DHT22;10463;52.378;9.688;2023-05-07T00:57:59;27.00;22.80
20610;DHT22;10463;52.378;9.688;2023-05-07T01:00:44;26.90;22.80
20610;DHT22;10463;52.378;9.688;2023-05-07T01:03:28;26.90;22.80
20610;DHT22;10463;52.378;9.688;2023-05-07T01:06:14;26.90;22.80
20610;DHT22;10463;52.378;9.688;2023-05-07T01:09:01;26.90;22.80
20610;DHT22;10463;52.378;9.688;2023-05-07T01:11:50;26.90;22.80
20610;DHT22;10463;52.378;9.688;2023-05-07T01:14:37;26.90;22.80
20610;DHT22;10463;52.378;9.688;2023-05-07T01:17:21;26.90;22.80
20610;DHT22;10463;52.378;9.688;2023-05-07T01:20:08;26.90;22.80
20610;DHT22;10463;52.378;9.688;2023-05-07T01:22:57;26.90;22.80
20610;DHT22;10463;52.378;9.688;2023-05-07T01:25:42;26.90;22.80
20610;DHT22;10463;52.378;9.688;2023-05-07T01:28:32;26.90;22.80
20610;DHT22;10463;52.378;9.688;2023-05-07T01:31:19;26.80;22.80
20610;DHT22;10463;52.378;9.688;2023-05-07T01:34:05;26.80;22.70
20610;DHT22;10463;52.378;9.688;2023-05-07T01:36:53;26.80;22.80
20610;DHT22;10463;52.378;9.688;2023-05-07T01:39:41;26.80;22.90
20610;DHT22;10463;52.378;9.688;2023-05-07T01:42:26;26.80;22.80
20610;DHT22;10463;52.378;9.688;2023-05-07T01:45:11;26.80;22.80
20610;DHT22;10463;52.378;9.688;2023-05-07T01:47:58;26.80;22.80
20610;DHT22;10463;52.378;9.688;2023-05-07T01:50:43;26.80;22.80
20610;DHT22;10463;52.378;9.688;2023-05-07T01:53:29;26.80;22.80
20610;DHT22;10463;52.378;9.688;2023-05-07T01:56:22;26.80;22.80
20610;DHT22;10463;52.378;9.688;2023-05-07T01:59:07;26.80;22.80
20610;DHT22;10463;52.378;9.688;2023-05-07T02:01:52;26.80;22.80
20610;DHT22;10463;52.378;9.688;2023-05-07T02:04:37;26.80;22.80
20610;DHT22;10463;52.378;9.688;2023-05-07T02:07:21;26.80;22.80
20610;DHT22;10463;52.378;9.688;2023-05-07T02:10:07;26.80;22.80
20610;DHT22;10463;52.378;9.688;2023-05-07T02:12:54;26.80;22.80
20610;DHT22;10463;52.378;9.688;2023-05-07T02:15:38;26.70;22.70
20610;DHT22;10463;52.378;9.688;2023-05-07T02:18:24;26.70;22.70
20610;DHT22;10463;52.378;9.688;2023-05-07T02:21:08;26.70;22.80
20610;DHT22;10463;52.378;9.688;2023-05-07T02:23:53;26.70;22.70
20610;DHT22;10463;52.378;9.688;2023-05-07T02:26:40;26.70;22.80
20610;DHT22;10463;52.378;9.688;2023-05-07T02:29:26;26.70;22.80
20610;DHT22;10463;52.378;9.688;2023-05-07T02:32:12;26.70;22.80
20610;DHT22;10463;52.378;9.688;2023-05-07T02:34:56;26.70;22.80
20610;DHT22;10463;52.378;9.688;2023-05-07T02:37:41;26.60;22.70
20610;DHT22;10463;52.378;9.688;2023-05-07T02:40:26;26.70;22.70
20610;DHT22;10463;52.378;9.688;2023-05-07T02:43:10;26.70;22.70
20610;DHT22;10463;52.378;9.688;2023-05-07T02:46:06;26.70;22.80
20610;DHT22;10463;52.378;9.688;2023-05-07T02:48:54;26.60;22.70
20610;DHT22;10463;52.378;9.688;2023-05-07T02:51:38;26.60;22.70
20610;DHT22;10463;52.378;9.688;2023-05-07T02:54:29;26.60;22.70
20610;DHT22;10463;52.378;9.688;2023-05-07T02:57:14;26.60;22.70
20610;DHT22;10463;52.378;9.688;2023-05-07T02:59:59;26.60;22.80
20610;DHT22;10463;52.378;9.688;2023-05-07T03:02:46;26.60;22.70
20610;DHT22;10463;52.378;9.688;2023-05-07T03:05:30;26.60;22.70
20610;DHT22;10463;52.378;9.688;2023-05-07T03:08:15;26.60;22.70
20610;DHT22;10463;52.378;9.688;2023-05-07T03:11:00;26.60;22.70
20610;DHT22;10463;52.378;9.688;2023-05-07T03:13:45;26.60;22.70
20610;DHT22;10463;52.378;9.688;2023-05-07T03:16:30;26.60;22.70
20610;DHT22;10463;52.378;9.688;2023-05-07T03:19:16;26.60;22.70
20610;DHT22;10463;52.378;9.688;2023-05-07T03:22:01;26.60;22.80
20610;DHT22;10463;52.378;9.688;2023-05-07T03:24:46;26.60;22.70
20610;DHT22;10463;52.378;9.688;2023-05-07T03:27:30;26.60;22.70
20610;DHT22;10463;52.378;9.688;2023-05-07T03:30:15;26.50;22.70
20610;DHT22;10463;52.378;9.688;2023-05-07T03:33:00;26.50;22.70
20610;DHT22;10463;52.378;9.688;2023-05-07T03:35:46;26.50;22.70
20610;DHT22;10463;52.378;9.688;2023-05-07T03:38:36;26.50;22.70
20610;DHT22;10463;52.378;9.688;2023-05-07T03:41:21;26.50;22.70
20610;DHT22;10463;52.378;9.688;2023-05-07T03:44:06;26.50;22.70
20610;DHT22;10463;52.378;9.688;2023-05-07T03:46:51;26.50;22.70
20610;DHT22;10463;52.378;9.688;2023-05-07T03:49:36;26.50;22.70
20610;DHT22;10463;52.378;9.688;2023-05-07T03:52:22;26.50;22.70
20610;DHT22;10463;52.378;9.688;2023-05-07T03:55:11;26.50;22.70
20610;DHT22;10463;52.378;9.688;2023-05-07T03:57:58;26.40;22.70
20610;DHT22;10463;52.378;9.688;2023-05-07T04:00:45;26.40;22.70
20610;DHT22;10463;52.378;9.688;2023-05-07T04:03:41;26.40;22.70
20610;DHT22;10463;52.378;9.688;2023-05-07T04:06:26;26.40;22.70
20610;DHT22;10463;52.378;9.688;2023-05-07T04:09:13;26.50;22.70
20610;DHT22;10463;52.378;9.688;2023-05-07T04:11:58;26.40;22.70
20610;DHT22;10463;52.378;9.688;2023-05-07T04:14:43;26.40;22.70
20610;DHT22;10463;52.378;9.688;2023-05-07T04:17:29;26.40;22.70
20610;DHT22;10463;52.378;9.688;2023-05-07T04:20:15;26.40;22.70
20610;DHT22;10463;52.378;9.688;2023-05-07T04:23:02;26.40;22.70
20610;DHT22;10463;52.378;9.688;2023-05-07T04:25:49;26.40;22.70
20610;DHT22;10463;52.378;9.688;2023-05-07T04:28:42;26.40;22.70
20610;DHT22;10463;52.378;9.688;2023-05-07T04:31:27;26.30;22.60
20610;DHT22;10463;52.378;9.688;2023-05-07T04:34:13;26.30;22.60
20610;DHT22;10463;52.378;9.688;2023-05-07T04:36:59;26.30;22.60
20610;DHT22;10463;52.378;9.688;2023-05-07T04:39:45;26.30;22.60
20610;DHT22;10463;52.378;9.688;2023-05-07T04:42:31;26.30;22.60
20610;DHT22;10463;52.378;9.688;2023-05-07T04:45:17;26.30;22.60
20610;DHT22;10463;52.378;9.688;2023-05-07T04:48:04;26.30;22.60
20610;DHT22;10463;52.378;9.688;2023-05-07T04:50:50;26.30;22.60
20610;DHT22;10463;52.378;9.688;2023-05-07T04:53:37;26.30;22.60
20610;DHT22;10463;52.378;9.688;2023-05-07T04:56:22;26.30;22.60
20610;DHT22;10463;52.378;9.688;2023-05-07T04:59:08;26.30;22.60
20610;DHT22;10463;52.378;9.688;2023-05-07T05:01:54;26.30;22.60
20610;DHT22;10463;52.378;9.688;2023-05-07T05:04:39;26.30;22.60
20610;DHT22;10463;52.378;9.688;2023-05-07T05:07:25;26.30;22.70
20610;DHT22;10463;52.378;9.688;2023-05-07T05:10:10;26.30;22.70
20610;DHT22;10463;52.378;9.688;2023-05-07T05:12:58;26.30;22.70
20610;DHT22;10463;52.378;9.688;2023-05-07T05:15:45;26.20;22.60
20610;DHT22;10463;52.378;9.688;2023-05-07T05:18:30;26.20;22.60
20610;DHT22;10463;52.378;9.688;2023-05-07T05:21:15;26.20;22.70
20610;DHT22;10463;52.378;9.688;2023-05-07T05:24:02;26.20;22.60
20610;DHT22;10463;52.378;9.688;2023-05-07T05:26:47;26.20;22.60
20610;DHT22;10463;52.378;9.688;2023-05-07T05:29:32;26.20;22.60
20610;DHT22;10463;52.378;9.688;2023-05-07T05:32:18;26.20;23.10
20610;DHT22;10463;52.378;9.688;2023-05-07T05:35:04;26.20;22.60
20610;DHT22;10463;52.378;9.688;2023-05-07T05:37:50;26.20;23.10
20610;DHT22;10463;52.378;9.688;2023-05-07T05:40:36;26.20;22.60
20610;DHT22;10463;52.378;9.688;2023-05-07T05:43:21;26.20;22.60
20610;DHT22;10463;52.378;9.688;2023-05-07T05:46:06;26.20;22.60
20610;DHT22;10463;52.378;9.688;2023-05-07T05:48:54;26.20;22.60
20610;DHT22;10463;52.378;9.688;2023-05-07T05:51:39;26.20;22.70
20610;DHT22;10463;52.378;9.688;2023-05-07T05:54:24;26.20;22.60
20610;DHT22;10463;52.378;9.688;2023-05-07T05:57:10;26.20;22.60
20610;DHT22;10463;52.378;9.688;2023-05-07T05:59:55;26.20;22.70
20610;DHT22;10463;52.378;9.688;2023-05-07T06:02:40;26.10;22.60
20610;DHT22;10463;52.378;9.688;2023-05-07T06:05:27;26.20;22.70
20610;DHT22;10463;52.378;9.688;2023-05-07T06:08:14;26.10;22.60
20610;DHT22;10463;52.378;9.688;2023-05-07T06:10:59;26.10;22.60
20610;DHT22;10463;52.378;9.688;2023-05-07T06:13:46;26.20;22.70
20610;DHT22;10463;52.378;9.688;2023-05-07T06:16:30;26.10;23.10
20610;DHT22;10463;52.378;9.688;2023-05-07T06:19:16;26.10;22.60
20610;DHT22;10463;52.378;9.688;2023-05-07T06:22:04;26.10;22.60
20610;DHT22;10463;52.378;9.688;2023-05-07T06:24:50;26.10;22.60
20610;DHT22;10463;52.378;9.688;2023-05-07T06:27:35;26.10;22.60
20610;DHT22;10463;52.378;9.688;2023-05-07T06:30:20;26.10;22.60
20610;DHT22;10463;52.378;9.688;2023-05-07T06:33:05;26.10;22.60
20610;DHT22;10463;52.378;9.688;2023-05-07T06:35:50;26.10;22.60
20610;DHT22;10463;52.378;9.688;2023-05-07T06:38:36;26.10;22.60
20610;DHT22;10463;52.378;9.688;2023-05-07T06:41:21;26.10;22.60
20610;DHT22;10463;52.378;9.688;2023-05-07T06:44:06;26.10;22.60
20610;DHT22;10463;52.378;9.688;2023-05-07T06:46:57;26.10;22.60
20610;DHT22;10463;52.378;9.688;2023-05-07T06:49:42;26.10;22.60
20610;DHT22;10463;52.378;9.688;2023-05-07T06:52:27;26.10;22.60
20610;DHT22;10463;52.378;9.688;2023-05-07T06:55:14;26.00;22.50
20610;DHT22;10463;52.378;9.688;2023-05-07T06:57:59;26.00;22.50
20610;DHT22;10463;52.378;9.688;2023-05-07T07:00:46;26.00;22.60
20610;DHT22;10463;52.378;9.688;2023-05-07T07:03:31;26.00;22.60
20610;DHT22;10463;52.378;9.688;2023-05-07T07:06:17;26.00;22.50
20610;DHT22;10463;52.378;9.688;2023-05-07T07:09:02;26.00;22.50
20610;DHT22;10463;52.378;9.688;2023-05-07T07:11:49;26.00;22.60
20610;DHT22;10463;52.378;9.688;2023-05-07T07:14:34;26.00;22.50
20610;DHT22;10463;52.378;9.688;2023-05-07T07:17:20;26.00;22.50
20610;DHT22;10463;52.378;9.688;2023-05-07T07:20:06;26.00;22.60
20610;DHT22;10463;52.378;9.688;2023-05-07T07:22:52;26.00;22.50
20610;DHT22;10463;52.378;9.688;2023-05-07T07:25:36;26.00;22.50
20610;DHT22;10463;52.378;9.688;2023-05-07T07:28:23;26.00;22.50
20610;DHT22;10463;52.378;9.688;2023-05-07T07:31:08;26.00;22.50
20610;DHT22;10463;52.378;9.688;2023-05-07T07:33:53;26.00;22.50
20610;DHT22;10463;52.378;9.688;2023-05-07T07:36:38;26.00;22.60
20610;DHT22;10463;52.378;9.688;2023-05-07T07:39:24;26.00;22.50
20610;DHT22;10463;52.378;9.688;2023-05-07T07:42:12;26.00;22.50
20610;DHT22;10463;52.378;9.688;2023-05-07T07:44:59;26.00;22.50
20610;DHT22;10463;52.378;9.688;2023-05-07T07:47:47;26.00;22.60
20610;DHT22;10463;52.378;9.688;2023-05-07T07:50:32;26.00;22.50
20610;DHT22;10463;52.378;9.688;2023-05-07T07:53:18;26.00;22.60
20610;DHT22;10463;52.378;9.688;2023-05-07T07:56:03;26.00;22.60
20610;DHT22;10463;52.378;9.688;2023-05-07T07:58:51;26.00;22.60
20610;DHT22;10463;52.378;9.688;2023-05-07T08:01:38;26.00;22.50
20610;DHT22;10463;52.378;9.688;2023-05-07T08:04:23;26.00;22.60
20610;DHT22;10463;52.378;9.688;2023-05-07T08:07:09;26.00;22.60
20610;DHT22;10463;52.378;9.688;2023-05-07T08:09:58;26.00;22.60
20610;DHT22;10463;52.378;9.688;2023-05-07T08:12:44;25.90;22.50
20610;DHT22;10463;52.378;9.688;2023-05-07T08:15:28;26.00;22.60
20610;DHT22;10463;52.378;9.688;2023-05-07T08:18:15;25.90;22.50
20610;DHT22;10463;52.378;9.688;2023-05-07T08:21:01;25.90;22.50
20610;DHT22;10463;52.378;9.688;2023-05-07T08:23:46;25.90;22.60
20610;DHT22;10463;52.378;9.688;2023-05-07T08:26:30;25.90;22.50
20610;DHT22;10463;52.378;9.688;2023-05-07T08:29:15;25.90;22.50
20610;DHT22;10463;52.378;9.688;2023-05-07T08:32:01;25.90;22.50
20610;DHT22;10463;52.378;9.688;2023-05-07T08:34:47;25.90;22.50
20610;DHT22;10463;52.378;9.688;2023-05-07T08:37:32;25.90;22.50
20610;DHT22;10463;52.378;9.688;2023-05-07T08:40:18;25.90;22.50
20610;DHT22;10463;52.378;9.688;2023-05-07T08:43:06;25.90;22.60
20610;DHT22;10463;52.378;9.688;2023-05-07T08:45:53;25.90;22.60
20610;DHT22;10463;52.378;9.688;2023-05-07T08:48:41;25.90;22.50
20610;DHT22;10463;52.378;9.688;2023-05-07T08:51:31;25.90;22.60
20610;DHT22;10463;52.378;9.688;2023-05-07T08:54:17;26.00;22.60
20610;DHT22;10463;52.378;9.688;2023-05-07T08:57:02;25.90;22.60
20610;DHT22;10463;52.378;9.688;2023-05-07T08:59:48;25.90;22.60
20610;DHT22;10463;52.378;9.688;2023-05-07T09:02:34;25.90;22.60
20610;DHT22;10463;52.378;9.688;2023-05-07T09:05:19;25.90;22.60
20610;DHT22;10463;52.378;9.688;2023-05-07T09:08:07;25.90;22.60
20610;DHT22;10463;52.378;9.688;2023-05-07T09:10:52;25.90;22.60
20610;DHT22;10463;52.378;9.688;2023-05-07T09:13:37;25.90;22.60
20610;DHT22;10463;52.378;9.688;2023-05-07T09:16:23;25.90;22.60
20610;DHT22;10463;52.378;9.688;2023-05-07T09:19:09;25.90;22.60
20610;DHT22;10463;52.378;9.688;2023-05-07T09:21:58;25.90;22.60
20610;DHT22;10463;52.378;9.688;2023-05-07T09:24:49;25.90;22.70
20610;DHT22;10463;52.378;9.688;2023-05-07T09:27:36;25.90;22.60
20610;DHT22;10463;52.378;9.688;2023-05-07T09:30:22;25.90;22.60
20610;DHT22;10463;52.378;9.688;2023-05-07T09:33:08;26.00;22.70
20610;DHT22;10463;52.378;9.688;2023-05-07T09:35:56;25.90;22.60
20610;DHT22;10463;52.378;9.688;2023-05-07T09:38:42;25.90;22.70
20610;DHT22;10463;52.378;9.688;2023-05-07T09:41:30;25.90;22.60
20610;DHT22;10463;52.378;9.688;2023-05-07T09:44:26;25.90;22.60
20610;DHT22;10463;52.378;9.688;2023-05-07T09:47:14;25.90;23.20
20610;DHT22;10463;52.378;9.688;2023-05-07T09:50:05;25.90;22.60
20610;DHT22;10463;52.378;9.688;2023-05-07T09:52:52;25.90;22.60
20610;DHT22;10463;52.378;9.688;2023-05-07T09:55:38;25.90;22.50
20610;DHT22;10463;52.378;9.688;2023-05-07T09:58:25;25.90;22.50
20610;DHT22;10463;52.378;9.688;2023-05-07T10:01:12;25.90;22.50
20610;DHT22;10463;52.378;9.688;2023-05-07T10:03:59;25.90;22.50
20610;DHT22;10463;52.378;9.688;2023-05-07T10:06:45;25.90;23.10
20610;DHT22;10463;52.378;9.688;2023-05-07T10:09:31;25.90;22.50
20610;DHT22;10463;52.378;9.688;2023-05-07T10:12:17;25.90;22.50
20610;DHT22;10463;52.378;9.688;2023-05-07T10:15:07;25.90;22.50
20610;DHT22;10463;52.378;9.688;2023-05-07T10:17:53;25.90;22.50
20610;DHT22;10463;52.378;9.688;2023-05-07T10:20:40;25.90;22.60
20610;DHT22;10463;52.378;9.688;2023-05-07T10:23:28;25.90;22.50
20610;DHT22;10463;52.378;9.688;2023-05-07T10:26:18;25.90;22.60
20610;DHT22;10463;52.378;9.688;2023-05-07T10:29:12;25.90;22.60
20610;DHT22;10463;52.378;9.688;2023-05-07T10:32:11;25.90;22.60
20610;DHT22;10463;52.378;9.688;2023-05-07T10:35:02;25.90;22.60
20610;DHT22;10463;52.378;9.688;2023-05-07T10:37:48;25.90;22.50
20610;DHT22;10463;52.378;9.688;2023-05-07T10:40:33;25.90;22.60
20610;DHT22;10463;52.378;9.688;2023-05-07T10:43:19;25.90;22.50
20610;DHT22;10463;52.378;9.688;2023-05-07T10:46:16;25.90;22.60
20610;DHT22;10463;52.378;9.688;2023-05-07T10:49:09;25.90;22.60
20610;DHT22;10463;52.378;9.688;2023-05-07T10:52:15;25.90;22.60
20610;DHT22;10463;52.378;9.688;2023-05-07T10:55:20;25.90;22.60
20610;DHT22;10463;52.378;9.688;2023-05-07T10:58:24;25.90;22.70
20610;DHT22;10463;52.378;9.688;2023-05-07T11:01:51;25.90;22.60
20610;DHT22;10463;52.378;9.688;2023-05-07T11:05:19;25.90;22.60
20610;DHT22;10463;52.378;9.688;2023-05-07T11:08:05;25.90;22.60
20610;DHT22;10463;52.378;9.688;2023-05-07T11:10:57;25.90;22.60
20610;DHT22;10463;52.378;9.688;2023-05-07T11:13:57;25.90;22.60
20610;DHT22;10463;52.378;9.688;2023-05-07T11:17:02;25.90;22.70
20610;DHT22;10463;52.378;9.688;2023-05-07T11:19:53;25.90;22.70
20610;DHT22;10463;52.378;9.688;2023-05-07T11:22:54;25.90;22.70
20610;DHT22;10463;52.378;9.688;2023-05-07T11:25:46;25.90;22.70
20610;DHT22;10463;52.378;9.688;2023-05-07T11:28:41;25.90;22.70
20610;DHT22;10463;52.378;9.688;2023-05-07T11:31:27;25.90;22.70
20610;DHT22;10463;52.378;9.688;2023-05-07T11:34:15;25.90;22.70
20610;DHT22;10463;52.378;9.688;2023-05-07T11:37:06;25.90;22.70
20610;DHT22;10463;52.378;9.688;2023-05-07T11:40:08;25.90;22.70
20610;DHT22;10463;52.378;9.688;2023-05-07T11:42:55;25.90;22.70
20610;DHT22;10463;52.378;9.688;2023-05-07T11:45:39;25.90;22.70
20610;DHT22;10463;52.378;9.688;2023-05-07T11:48:24;25.90;22.70
20610;DHT22;10463;52.378;9.688;2023-05-07T11:51:09;25.90;22.70
20610;DHT22;10463;52.378;9.688;2023-05-07T11:53:57;25.90;22.70
20610;DHT22;10463;52.378;9.688;2023-05-07T11:56:42;25.90;22.70
20610;DHT22;10463;52.378;9.688;2023-05-07T11:59:28;25.90;22.70
20610;DHT22;10463;52.378;9.688;2023-05-07T12:02:14;25.90;22.70
20610;DHT22;10463;52.378;9.688;2023-05-07T12:05:00;25.90;22.70
20610;DHT22;10463;52.378;9.688;2023-05-07T12:07:45;25.90;22.70
20610;DHT22;10463;52.378;9.688;2023-05-07T12:10:32;25.90;22.70
20610;DHT22;10463;52.378;9.688;2023-05-07T12:13:16;25.90;23.20
20610;DHT22;10463;52.378;9.688;2023-05-07T12:16:02;25.90;22.70
20610;DHT22;10463;52.378;9.688;2023-05-07T12:18:49;25.90;22.70
20610;DHT22;10463;52.378;9.688;2023-05-07T12:21:35;25.90;22.70
20610;DHT22;10463;52.378;9.688;2023-05-07T12:24:20;25.90;22.70
20610;DHT22;10463;52.378;9.688;2023-05-07T12:27:07;26.00;22.80
20610;DHT22;10463;52.378;9.688;2023-05-07T12:29:52;25.90;22.70
20610;DHT22;10463;52.378;9.688;2023-05-07T12:32:36;25.90;22.70
20610;DHT22;10463;52.378;9.688;2023-05-07T12:35:27;25.90;22.70
20610;DHT22;10463;52.378;9.688;2023-05-07T12:38:14;25.90;22.70
20610;DHT22;10463;52.378;9.688;2023-05-07T12:41:00;25.90;22.70
20610;DHT22;10463;52.378;9.688;2023-05-07T12:43:46;25.90;22.70
20610;DHT22;10463;52.378;9.688;2023-05-07T12:46:31;26.00;22.80
20610;DHT22;10463;52.378;9.688;2023-05-07T12:49:16;25.90;22.70
20610;DHT22;10463;52.378;9.688;2023-05-07T12:52:02;26.00;22.80
20610;DHT22;10463;52.378;9.688;2023-05-07T12:54:48;26.00;22.80
20610;DHT22;10463;52.378;9.688;2023-05-07T12:57:38;26.00;22.80
20610;DHT22;10463;52.378;9.688;2023-05-07T13:00:36;25.90;22.70
20610;DHT22;10463;52.378;9.688;2023-05-07T13:03:24;25.90;22.80
20610;DHT22;10463;52.378;9.688;2023-05-07T13:06:10;26.00;22.80
20610;DHT22;10463;52.378;9.688;2023-05-07T13:08:56;26.00;22.80
20610;DHT22;10463;52.378;9.688;2023-05-07T13:11:41;26.00;22.80
20610;DHT22;10463;52.378;9.688;2023-05-07T13:14:25;26.00;22.80
20610;DHT22;10463;52.378;9.688;2023-05-07T13:17:11;26.00;22.80
20610;DHT22;10463;52.378;9.688;2023-05-07T13:19:56;26.00;22.80
20610;DHT22;10463;52.378;9.688;2023-05-07T13:22:41;26.00;22.80
20610;DHT22;10463;52.378;9.688;2023-05-07T13:25:26;26.00;22.80
20610;DHT22;10463;52.378;9.688;2023-05-07T13:28:11;26.00;22.80
20610;DHT22;10463;52.378;9.688;2023-05-07T13:30:56;26.00;22.80
20610;DHT22;10463;52.378;9.688;2023-05-07T13:33:42;26.00;22.80
20610;DHT22;10463;52.378;9.688;2023-05-07T13:36:27;26.00;22.80
20610;DHT22;10463;52.378;9.688;2023-05-07T13:39:12;26.00;22.80
20610;DHT22;10463;52.378;9.688;2023-05-07T13:41:57;26.00;22.80
20610;DHT22;10463;52.378;9.688;2023-05-07T13:44:42;26.00;22.80
20610;DHT22;10463;52.378;9.688;2023-05-07T13:47:28;26.10;22.80
20610;DHT22;10463;52.378;9.688;2023-05-07T13:50:14;26.00;22.80
20610;DHT22;10463;52.378;9.688;2023-05-07T13:52:58;26.10;22.80
20610;DHT22;10463;52.378;9.688;2023-05-07T13:55:43;26.10;22.80
20610;DHT22;10463;52.378;9.688;2023-05-07T13:58:27;26.10;22.80
20610;DHT22;10463;52.378;9.688;2023-05-07T14:01:12;26.10;22.80
20610;DHT22;10463;52.378;9.688;2023-05-07T14:03:57;26.10;22.80
20610;DHT22;10463;52.378;9.688;2023-05-07T14:06:46;26.20;22.90
20610;DHT22;10463;52.378;9.688;2023-05-07T14:09:31;26.20;22.90
20610;DHT22;10463;52.378;9.688;2023-05-07T14:12:15;26.20;22.90
20610;DHT22;10463;52.378;9.688;2023-05-07T14:15:00;26.20;22.90
20610;DHT22;10463;52.378;9.688;2023-05-07T14:17:45;26.20;22.90
20610;DHT22;10463;52.378;9.688;2023-05-07T14:20:30;26.20;22.90
20610;DHT22;10463;52.378;9.688;2023-05-07T14:23:16;26.20;22.90
20610;DHT22;10463;52.378;9.688;2023-05-07T14:26:04;26.20;22.90
20610;DHT22;10463;52.378;9.688;2023-05-07T14:28:48;26.20;22.90
20610;DHT22;10463;52.378;9.688;2023-05-07T14:31:34;26.30;22.90
20610;DHT22;10463;52.378;9.688;2023-05-07T14:34:18;26.30;22.90
20610;DHT22;10463;52.378;9.688;2023-05-07T14:37:03;26.30;22.90
20610;DHT22;10463;52.378;9.688;2023-05-07T14:39:49;26.30;22.90
20610;DHT22;10463;52.378;9.688;2023-05-07T14:42:34;26.30;22.90
20610;DHT22;10463;52.378;9.688;2023-05-07T14:45:20;26.30;22.90
20610;DHT22;10463;52.378;9.688;2023-05-07T14:48:05;26.30;22.90
20610;DHT22;10463;52.378;9.688;2023-05-07T14:50:49;26.30;22.90
20610;DHT22;10463;52.378;9.688;2023-05-07T14:53:34;26.40;23.00
20610;DHT22;10463;52.378;9.688;2023-05-07T14:56:20;26.40;23.00
20610;DHT22;10463;52.378;9.688;2023-05-07T14:59:06;26.40;23.00
20610;DHT22;10463;52.378;9.688;2023-05-07T15:01:51;26.40;23.00
20610;DHT22;10463;52.378;9.688;2023-05-07T15:04:36;26.40;23.00
20610;DHT22;10463;52.378;9.688;2023-05-07T15:07:22;26.40;23.00
20610;DHT22;10463;52.378;9.688;2023-05-07T15:10:08;26.40;23.50
20610;DHT22;10463;52.378;9.688;2023-05-07T15:12:54;26.50;22.90
20610;DHT22;10463;52.378;9.688;2023-05-07T15:15:39;26.50;22.90
20610;DHT22;10463;52.378;9.688;2023-05-07T15:18:24;26.50;22.90
20610;DHT22;10463;52.378;9.688;2023-05-07T15:21:09;26.50;22.90
20610;DHT22;10463;52.378;9.688;2023-05-07T15:23:54;26.50;22.90
20610;DHT22;10463;52.378;9.688;2023-05-07T15:26:39;26.50;22.90
20610;DHT22;10463;52.378;9.688;2023-05-07T15:29:25;26.50;22.90
20610;DHT22;10463;52.378;9.688;2023-05-07T15:32:10;26.50;22.80
20610;DHT22;10463;52.378;9.688;2023-05-07T15:34:55;26.50;22.90
20610;DHT22;10463;52.378;9.688;2023-05-07T15:37:40;26.50;22.80
20610;DHT22;10463;52.378;9.688;2023-05-07T15:40:24;26.60;22.90
20610;DHT22;10463;52.378;9.688;2023-05-07T15:43:10;26.60;22.90
20610;DHT22;10463;52.378;9.688;2023-05-07T15:45:56;26.60;22.80
20610;DHT22;10463;52.378;9.688;2023-05-07T15:48:41;26.60;22.90
20610;DHT22;10463;52.378;9.688;2023-05-07T15:51:26;26.60;22.80
20610;DHT22;10463;52.378;9.688;2023-05-07T15:54:12;26.60;22.90
20610;DHT22;10463;52.378;9.688;2023-05-07T15:56:56;26.60;22.80
20610;DHT22;10463;52.378;9.688;2023-05-07T15:59:41;26.60;22.80
20610;DHT22;10463;52.378;9.688;2023-05-07T16:02:28;26.60;22.80
20610;DHT22;10463;52.378;9.688;2023-05-07T16:05:12;26.60;22.80
20610;DHT22;10463;52.378;9.688;2023-05-07T16:07:57;26.60;22.80
20610;DHT22;10463;52.378;9.688;2023-05-07T16:10:43;26.60;22.80
20610;DHT22;10463;52.378;9.688;2023-05-07T16:13:28;26.60;22.80
20610;DHT22;10463;52.378;9.688;2023-05-07T16:16:12;26.60;22.70
20610;DHT22;10463;52.378;9.688;2023-05-07T16:18:58;26.60;22.80
20610;DHT22;10463;52.378;9.688;2023-05-07T16:21:43;26.60;22.70
20610;DHT22;10463;52.378;9.688;2023-05-07T16:24:28;26.60;22.70
20610;DHT22;10463;52.378;9.688;2023-05-07T16:27:12;26.60;22.70
20610;DHT22;10463;52.378;9.688;2023-05-07T16:29:57;26.60;22.70
20610;DHT22;10463;52.378;9.688;2023-05-07T16:32:41;26.60;22.70
20610;DHT22;10463;52.378;9.688;2023-05-07T16:35:27;26.70;22.70
20610;DHT22;10463;52.378;9.688;2023-05-07T16:38:12;26.60;22.70
20610;DHT22;10463;52.378;9.688;2023-05-07T16:40:57;26.70;22.70
20610;DHT22;10463;52.378;9.688;2023-05-07T16:43:42;26.70;22.70
20610;DHT22;10463;52.378;9.688;2023-05-07T16:46:26;26.70;22.70
20610;DHT22;10463;52.378;9.688;2023-05-07T16:49:11;26.60;22.60
20610;DHT22;10463;52.378;9.688;2023-05-07T16:51:57;26.60;22.60
20610;DHT22;10463;52.378;9.688;2023-05-07T16:54:41;26.70;23.30
20610;DHT22;10463;52.378;9.688;2023-05-07T16:57:26;26.60;22.60
20610;DHT22;10463;52.378;9.688;2023-05-07T17:00:12;26.70;22.60
20610;DHT22;10463;52.378;9.688;2023-05-07T17:02:57;26.60;22.50
20610;DHT22;10463;52.378;9.688;2023-05-07T17:05:42;26.60;22.60
20610;DHT22;10463;52.378;9.688;2023-05-07T17:08:28;26.60;22.50
20610;DHT22;10463;52.378;9.688;2023-05-07T17:11:12;26.60;22.50
20610;DHT22;10463;52.378;9.688;2023-05-07T17:13:57;26.60;22.50
20610;DHT22;10463;52.378;9.688;2023-05-07T17:16:42;26.60;22.50
20610;DHT22;10463;52.378;9.688;2023-05-07T17:19:26;26.60;22.50
20610;DHT22;10463;52.378;9.688;2023-05-07T17:22:11;26.60;22.50
20610;DHT22;10463;52.378;9.688;2023-05-07T17:24:58;26.60;22.50
20610;DHT22;10463;52.378;9.688;2023-05-07T17:27:44;26.60;22.50
20610;DHT22;10463;52.378;9.688;2023-05-07T17:30:29;26.60;22.50
20610;DHT22;10463;52.378;9.688;2023-05-07T17:33:14;26.60;22.50